Time;durP1;ratioP1;P1;durP2;ratioP2;P2;SDS_P1;SDS_P2;PMS_P1;PMS_P2;Temp;Humidity;BMP_temperature;BMP_pressure;BME280_temperature;BME280_humidity;BME280_pressure;Samples;Min_cycle;Max_cycle;Signal;HPM_P1;HPM_P2
2021/09/05 00:01:44;;;;;;;15.02;12.68;;;;;;;;;;4982556;28;20406;-89
2021/09/05 00:04:11;;;;;;;14.38;12.75;;;;;;;;;;4981180;28;20780;-89
2021/09/05 00:06:38;;;;;;;15.95;13.10;;;;;;;;;;4987842;28;20410;-89
2021/09/05 00:09:05;;;;;;;15.25;12.75;;;;;;;;;;4980398;28;20466;-89
2021/09/05 00:11:33;;;;;;;13.75;12.35;;;;;;;;;;4985235;28;20423;-89
2021/09/05 00:14:00;;;;;;;14.73;12.63;;;;;;;;;;4981587;28;20694;-89
2021/09/05 00:16:30;;;;;;;14.05;12.43;;;;;;;;;;4987641;28;20423;-90
2021/09/05 00:18:57;;;;;;;13.95;12.18;;;;;;;;;;4983508;28;20421;-89
2021/09/05 00:21:24;;;;;;;14.38;11.55;;;;;;;;;;4986147;28;20916;-90
2021/09/05 00:23:51;;;;;;;12.27;10.98;;;;;;;;;;4983050;28;20415;-89
2021/09/05 00:26:18;;;;;;;12.80;10.65;;;;;;;;;;4980988;28;20421;-90
2021/09/05 00:28:46;;;;;;;12.40;10.10;;;;;;;;;;4987585;28;20416;-90
2021/09/05 00:31:13;;;;;;;11.70;9.70;;;;;;;;;;4989411;28;20414;-90
2021/09/05 00:33:40;;;;;;;14.88;9.15;;;;;;;;;;4985117;28;20854;-89
2021/09/05 00:36:07;;;;;;;10.40;8.60;;;;;;;;;;4983953;28;20586;-90
2021/09/05 00:38:34;;;;;;;11.73;8.55;;;;;;;;;;4980791;28;20418;-89
2021/09/05 00:41:01;;;;;;;10.15;8.23;;;;;;;;;;4988927;28;20411;-90
2021/09/05 00:43:27;;;;;;;9.43;8.48;;;;;;;;;;4982390;28;20754;-89
2021/09/05 00:45:56;;;;;;;11.47;8.50;;;;;;;;;;4989486;28;20412;-90
2021/09/05 00:48:23;;;;;;;11.25;8.63;;;;;;;;;;4984666;28;20423;-89
2021/09/05 00:50:50;;;;;;;10.80;9.00;;;;;;;;;;4988125;28;20736;-89
2021/09/05 00:53:18;;;;;;;11.13;8.57;;;;;;;;;;4989189;28;20435;-90
2021/09/05 00:55:45;;;;;;;10.15;8.38;;;;;;;;;;4990491;28;20441;-90
2021/09/05 00:58:12;;;;;;;10.75;8.60;;;;;;;;;;4987959;28;20424;-89
2021/09/05 01:00:39;;;;;;;9.93;8.50;;;;;;;;;;4986106;28;20611;-90
2021/09/05 01:03:08;;;;;;;12.30;8.88;;;;;;;;;;4991288;28;20963;-89
2021/09/05 01:05:35;;;;;;;11.10;9.23;;;;;;;;;;4986643;28;20684;-90
2021/09/05 01:08:02;;;;;;;10.48;8.65;;;;;;;;;;4989588;28;20469;-90
2021/09/05 01:10:29;;;;;;;10.93;8.90;;;;;;;;;;4986029;28;20404;-89
2021/09/05 01:12:58;;;;;;;10.85;8.90;;;;;;;;;;4989675;28;20947;-89
2021/09/05 01:15:25;;;;;;;12.45;9.15;;;;;;;;;;4988372;28;20407;-90
2021/09/05 01:17:52;;;;;;;10.53;8.83;;;;;;;;;;4989612;28;20801;-90
2021/09/05 01:20:20;;;;;;;11.63;9.23;;;;;;;;;;4988252;28;20421;-90
2021/09/05 01:22:47;;;;;;;11.45;8.80;;;;;;;;;;4989445;28;20421;-90
2021/09/05 01:25:14;;;;;;;10.75;8.50;;;;;;;;;;4990155;28;20408;-90
2021/09/05 01:27:43;;;;;;;11.30;8.88;;;;;;;;;;4987199;28;20754;-89
2021/09/05 01:30:11;;;;;;;9.95;8.60;;;;;;;;;;4990048;28;20421;-89
2021/09/05 01:32:38;;;;;;;9.68;8.68;;;;;;;;;;4985921;28;20416;-89
2021/09/05 01:35:05;;;;;;;10.23;8.40;;;;;;;;;;4988309;28;20412;-90
2021/09/05 01:37:32;;;;;;;11.57;8.80;;;;;;;;;;4989651;28;20475;-90
2021/09/05 01:39:59;;;;;;;11.48;9.43;;;;;;;;;;4983838;28;20413;-90
2021/09/05 01:42:27;;;;;;;11.45;9.35;;;;;;;;;;4988981;28;20416;-90
2021/09/05 01:44:55;;;;;;;10.98;9.38;;;;;;;;;;4987041;28;20764;-90
2021/09/05 01:47:22;;;;;;;10.45;9.38;;;;;;;;;;4989087;28;20421;-90
2021/09/05 01:49:49;;;;;;;12.05;10.20;;;;;;;;;;4987348;28;20445;-89
2021/09/05 01:52:16;;;;;;;14.40;10.10;;;;;;;;;;4986398;28;20919;-90
2021/09/05 01:54:43;;;;;;;10.85;9.07;;;;;;;;;;4987792;28;20734;-88
2021/09/05 01:57:10;;;;;;;10.32;9.32;;;;;;;;;;4987472;28;20405;-90
2021/09/05 01:59:37;;;;;;;10.88;9.18;;;;;;;;;;4988306;28;20417;-89
2021/09/05 02:02:05;;;;;;;9.98;8.80;;;;;;;;;;4996191;28;20406;-90
2021/09/05 02:04:32;;;;;;;11.50;9.03;;;;;;;;;;4994095;28;20958;-90
2021/09/05 02:06:59;;;;;;;11.73;9.30;;;;;;;;;;4994981;28;20428;-89
2021/09/05 02:09:26;;;;;;;9.93;8.93;;;;;;;;;;4993369;28;20411;-89
2021/09/05 02:11:53;;;;;;;11.15;8.77;;;;;;;;;;4996270;28;20733;-89
2021/09/05 02:14:20;;;;;;;12.80;9.13;;;;;;;;;;4999021;28;20767;-90
2021/09/05 02:16:47;;;;;;;10.27;9.13;;;;;;;;;;4986737;28;20415;-89
2021/09/05 02:19:15;;;;;;;11.20;9.05;;;;;;;;;;4999909;28;20409;-89
2021/09/05 02:21:42;;;;;;;9.65;8.32;;;;;;;;;;5003949;28;20411;-89
2021/09/05 02:24:09;;;;;;;10.75;8.68;;;;;;;;;;4997875;28;21001;-90
2021/09/05 02:26:36;;;;;;;10.70;8.48;;;;;;;;;;4992574;28;20419;-89
2021/09/05 02:29:03;;;;;;;9.85;8.70;;;;;;;;;;4987667;28;20406;-89
2021/09/05 02:31:30;;;;;;;9.88;8.60;;;;;;;;;;4978651;28;20422;-89
2021/09/05 02:33:57;;;;;;;10.50;9.18;;;;;;;;;;4992227;28;20427;-89
2021/09/05 02:36:26;;;;;;;10.73;9.33;;;;;;;;;;4996062;28;20414;-90
2021/09/05 02:38:53;;;;;;;11.88;9.27;;;;;;;;;;4988572;28;20495;-89
2021/09/05 02:41:20;;;;;;;11.55;8.98;;;;;;;;;;4994585;28;20431;-89
2021/09/05 02:43:46;;;;;;;11.18;9.13;;;;;;;;;;4993600;28;20439;-89
2021/09/05 02:46:13;;;;;;;10.48;8.90;;;;;;;;;;4993563;28;20750;-87
2021/09/05 02:48:40;;;;;;;10.30;8.55;;;;;;;;;;4994932;28;20442;-89
2021/09/05 02:51:07;;;;;;;11.18;9.05;;;;;;;;;;4996985;28;20409;-90
2021/09/05 02:53:35;;;;;;;11.23;8.93;;;;;;;;;;4998659;28;20420;-89
2021/09/05 02:56:02;;;;;;;11.90;9.15;;;;;;;;;;4992601;28;20413;-88
2021/09/05 02:58:29;;;;;;;10.45;8.90;;;;;;;;;;4990909;28;20424;-90
2021/09/05 03:00:56;;;;;;;11.10;8.77;;;;;;;;;;4994877;28;20925;-89
2021/09/05 03:03:23;;;;;;;10.23;8.73;;;;;;;;;;4986440;28;21251;-89
2021/09/05 03:05:50;;;;;;;9.77;8.50;;;;;;;;;;5000190;28;20408;-91
2021/09/05 03:08:17;;;;;;;11.73;9.13;;;;;;;;;;5000188;28;20421;-89
2021/09/05 03:10:46;;;;;;;10.13;8.75;;;;;;;;;;4992519;28;20407;-90
2021/09/05 03:13:12;;;;;;;9.98;8.77;;;;;;;;;;4994320;28;20422;-90
2021/09/05 03:15:39;;;;;;;10.82;8.80;;;;;;;;;;4993456;28;20415;-89
2021/09/05 03:18:06;;;;;;;11.10;8.77;;;;;;;;;;4996055;28;20408;-90
2021/09/05 03:20:33;;;;;;;11.10;9.02;;;;;;;;;;4992999;28;20395;-89
2021/09/05 03:23:00;;;;;;;10.10;9.00;;;;;;;;;;4986910;28;20403;-90
2021/09/05 03:25:27;;;;;;;9.90;8.65;;;;;;;;;;4997856;28;20915;-89
2021/09/05 03:27:56;;;;;;;10.15;8.90;;;;;;;;;;4995024;28;20772;-88
2021/09/05 03:30:23;;;;;;;11.98;9.73;;;;;;;;;;4992852;28;20411;-89
2021/09/05 03:32:49;;;;;;;10.35;8.60;;;;;;;;;;4991060;28;20427;-90
2021/09/05 03:35:16;;;;;;;11.00;8.98;;;;;;;;;;4988327;28;20416;-89
2021/09/05 03:37:43;;;;;;;11.10;9.02;;;;;;;;;;4995160;28;20418;-89
2021/09/05 03:40:11;;;;;;;12.27;8.60;;;;;;;;;;4991451;28;20501;-90
2021/09/05 03:42:38;;;;;;;10.52;8.65;;;;;;;;;;4990625;28;20426;-89
2021/09/05 03:45:07;;;;;;;9.82;8.63;;;;;;;;;;4996011;28;20847;-89
2021/09/05 03:47:34;;;;;;;9.43;8.38;;;;;;;;;;4991878;28;20899;-90
2021/09/05 03:50:01;;;;;;;12.20;8.53;;;;;;;;;;4989284;28;20866;-89
2021/09/05 03:52:28;;;;;;;9.43;8.07;;;;;;;;;;4990466;28;20408;-90
2021/09/05 03:54:55;;;;;;;12.95;9.10;;;;;;;;;;4992693;28;20422;-90
2021/09/05 03:57:22;;;;;;;10.52;7.75;;;;;;;;;;4991492;28;20403;-89
2021/09/05 03:59:49;;;;;;;9.68;8.05;;;;;;;;;;4993540;28;20811;-89
2021/09/05 04:02:17;;;;;;;8.70;7.80;;;;;;;;;;4988622;28;20407;-89
2021/09/05 04:04:44;;;;;;;8.98;7.60;;;;;;;;;;4983927;28;20430;-89
2021/09/05 04:07:14;;;;;;;11.50;7.80;;;;;;;;;;4984749;28;20408;-90
2021/09/05 04:12:25;;;;;;;8.40;7.53;;;;;;;;;;4981532;28;20769;-90
2021/09/05 04:14:52;;;;;;;9.53;8.03;;;;;;;;;;4983060;28;20455;-90
2021/09/05 04:17:20;;;;;;;8.17;7.23;;;;;;;;;;4983401;28;20415;-89
2021/09/05 04:19:47;;;;;;;9.98;7.53;;;;;;;;;;4983576;28;20940;-89
2021/09/05 04:22:15;;;;;;;10.95;8.15;;;;;;;;;;4983697;28;20435;-90
2021/09/05 04:24:42;;;;;;;8.27;7.45;;;;;;;;;;4984206;28;20403;-89
2021/09/05 04:27:09;;;;;;;11.15;8.15;;;;;;;;;;4984230;28;20416;-90
2021/09/05 04:29:35;;;;;;;8.60;7.25;;;;;;;;;;4978501;28;20990;-89
2021/09/05 04:32:02;;;;;;;10.30;7.60;;;;;;;;;;4988685;28;20422;-89
2021/09/05 04:34:31;;;;;;;8.40;7.20;;;;;;;;;;4979394;28;20432;-89
2021/09/05 04:36:57;;;;;;;9.30;7.65;;;;;;;;;;4986447;28;20419;-89
2021/09/05 04:39:24;;;;;;;8.73;7.82;;;;;;;;;;4984216;28;20902;-90
2021/09/05 04:41:51;;;;;;;9.25;7.80;;;;;;;;;;4992132;28;20421;-89
2021/09/05 04:44:18;;;;;;;11.18;8.40;;;;;;;;;;4985107;28;20414;-90
2021/09/05 04:46:45;;;;;;;9.73;8.27;;;;;;;;;;4984335;28;20414;-90
2021/09/05 04:49:12;;;;;;;10.63;8.63;;;;;;;;;;4988538;28;20423;-90
2021/09/05 04:51:41;;;;;;;9.38;8.07;;;;;;;;;;4984689;28;20740;-89
2021/09/05 04:54:08;;;;;;;9.65;8.23;;;;;;;;;;4982532;28;20429;-89
2021/09/05 04:56:34;;;;;;;10.25;8.70;;;;;;;;;;4987200;28;20412;-90
2021/09/05 04:59:01;;;;;;;10.02;8.65;;;;;;;;;;4985921;28;20413;-90
2021/09/05 05:01:28;;;;;;;10.82;8.82;;;;;;;;;;4981940;28;20794;-90
2021/09/05 05:03:55;;;;;;;11.50;9.40;;;;;;;;;;4982626;28;20413;-90
2021/09/05 05:06:22;;;;;;;10.60;9.25;;;;;;;;;;4989309;28;20416;-89
2021/09/05 05:08:52;;;;;;;11.63;9.45;;;;;;;;;;4983083;28;20409;-90
2021/09/05 05:11:19;;;;;;;12.02;9.55;;;;;;;;;;4982928;28;20722;-89
2021/09/05 05:13:46;;;;;;;10.68;9.35;;;;;;;;;;4980182;28;20413;-90
2021/09/05 05:16:13;;;;;;;10.80;9.35;;;;;;;;;;4988236;28;20420;-90
2021/09/05 05:18:41;;;;;;;10.88;9.50;;;;;;;;;;4993697;28;20435;-89
2021/09/05 05:21:08;;;;;;;13.27;9.85;;;;;;;;;;4979679;28;20473;-89
2021/09/05 05:23:36;;;;;;;11.30;9.70;;;;;;;;;;4986910;28;20943;-89
2021/09/05 05:26:04;;;;;;;12.35;10.13;;;;;;;;;;4980328;28;20412;-90
2021/09/05 05:28:31;;;;;;;14.25;10.35;;;;;;;;;;4980296;28;20853;-90
2021/09/05 05:30:58;;;;;;;13.20;10.20;;;;;;;;;;4988516;28;20422;-89
2021/09/05 05:33:25;;;;;;;11.95;10.00;;;;;;;;;;4985497;28;20809;-90
2021/09/05 05:35:52;;;;;;;14.63;10.27;;;;;;;;;;4996000;28;20404;-88
2021/09/05 05:38:19;;;;;;;12.27;10.40;;;;;;;;;;4983639;28;20786;-90
2021/09/05 05:40:45;;;;;;;13.57;9.98;;;;;;;;;;4988078;28;20411;-90
2021/09/05 05:43:14;;;;;;;12.77;9.85;;;;;;;;;;4990804;28;20419;-90
2021/09/05 05:45:41;;;;;;;12.60;9.65;;;;;;;;;;4987131;28;20426;-90
2021/09/05 05:48:08;;;;;;;13.70;9.20;;;;;;;;;;4985879;28;20401;-89
2021/09/05 05:50:35;;;;;;;12.63;9.00;;;;;;;;;;4984807;28;20485;-90
2021/09/05 05:53:02;;;;;;;10.40;8.88;;;;;;;;;;4990540;28;20412;-90
2021/09/05 05:55:29;;;;;;;9.30;8.20;;;;;;;;;;4984953;28;20408;-90
2021/09/05 05:57:56;;;;;;;10.07;8.27;;;;;;;;;;4988734;28;20412;-90
2021/09/05 06:00:25;;;;;;;11.98;8.80;;;;;;;;;;5000623;28;20424;-89
2021/09/05 06:02:52;;;;;;;9.45;8.07;;;;;;;;;;4999378;28;20761;-90
2021/09/05 06:05:19;;;;;;;11.77;8.13;;;;;;;;;;4985833;28;20912;-90
2021/09/05 06:07:46;;;;;;;10.63;7.75;;;;;;;;;;4983102;28;20421;-89
2021/09/05 06:10:13;;;;;;;10.43;7.80;;;;;;;;;;4987555;28;20423;-90
2021/09/05 06:12:40;;;;;;;10.10;7.45;;;;;;;;;;4983880;28;20410;-89
2021/09/05 06:15:08;;;;;;;10.65;7.30;;;;;;;;;;4986280;28;20495;-90
2021/09/05 06:17:36;;;;;;;9.50;7.30;;;;;;;;;;4984223;28;20412;-90
2021/09/05 06:20:04;;;;;;;10.02;7.07;;;;;;;;;;4983423;28;20412;-90
2021/09/05 06:22:31;;;;;;;9.80;7.63;;;;;;;;;;4986306;28;20420;-90
2021/09/05 06:24:58;;;;;;;9.07;7.32;;;;;;;;;;4987456;28;20426;-90
2021/09/05 06:27:25;;;;;;;10.10;7.57;;;;;;;;;;4984487;28;20786;-89
2021/09/05 06:29:51;;;;;;;9.15;7.00;;;;;;;;;;4983061;28;20757;-90
2021/09/05 06:32:18;;;;;;;8.63;6.85;;;;;;;;;;4987444;28;20865;-90
2021/09/05 06:34:46;;;;;;;9.30;7.40;;;;;;;;;;4985207;28;20779;-90
2021/09/05 06:37:13;;;;;;;7.63;6.82;;;;;;;;;;4984922;28;20407;-90
2021/09/05 06:39:40;;;;;;;7.70;6.70;;;;;;;;;;4987715;28;20405;-90
2021/09/05 06:42:09;;;;;;;11.00;6.72;;;;;;;;;;4986105;28;20424;-90
2021/09/05 06:44:36;;;;;;;9.77;6.22;;;;;;;;;;4986813;28;20413;-90
2021/09/05 06:47:03;;;;;;;7.55;6.25;;;;;;;;;;4980742;28;20683;-90
2021/09/05 06:49:30;;;;;;;9.77;6.57;;;;;;;;;;4987018;28;20412;-89
2021/09/05 06:51:58;;;;;;;6.93;5.95;;;;;;;;;;4989021;28;21132;-89
2021/09/05 06:54:25;;;;;;;7.88;6.53;;;;;;;;;;4982926;28;20416;-90
2021/09/05 06:56:52;;;;;;;8.02;6.47;;;;;;;;;;4987968;28;20415;-90
2021/09/05 06:59:19;;;;;;;8.93;6.45;;;;;;;;;;4981041;28;20427;-90
2021/09/05 07:01:46;;;;;;;8.52;6.20;;;;;;;;;;4987818;28;20420;-90
2021/09/05 07:04:13;;;;;;;10.18;6.82;;;;;;;;;;4983129;28;20416;-90
2021/09/05 07:06:40;;;;;;;7.43;6.45;;;;;;;;;;4991819;28;20413;-91
2021/09/05 07:09:08;;;;;;;7.32;6.63;;;;;;;;;;4984327;28;20745;-90
2021/09/05 07:11:35;;;;;;;9.68;6.28;;;;;;;;;;4983249;28;20420;-90
2021/09/05 07:14:02;;;;;;;9.27;7.05;;;;;;;;;;4990394;28;20924;-90
2021/09/05 07:16:29;;;;;;;7.40;6.60;;;;;;;;;;4984553;28;20420;-90
2021/09/05 07:18:56;;;;;;;7.18;6.05;;;;;;;;;;4987992;28;20420;-90
2021/09/05 07:21:22;;;;;;;7.85;5.60;;;;;;;;;;4983150;28;20413;-90
2021/09/05 07:23:49;;;;;;;7.40;5.82;;;;;;;;;;4990160;28;20420;-90
2021/09/05 07:26:18;;;;;;;7.32;5.15;;;;;;;;;;4983999;28;20489;-90
2021/09/05 07:28:45;;;;;;;6.85;5.03;;;;;;;;;;4984834;28;20852;-90
2021/09/05 07:31:12;;;;;;;5.75;4.50;;;;;;;;;;4987925;28;20411;-91
2021/09/05 07:33:39;;;;;;;6.40;4.28;;;;;;;;;;4985968;28;20441;-91
2021/09/05 07:36:06;;;;;;;5.60;4.30;;;;;;;;;;4980857;28;20437;-91
2021/09/05 07:38:33;;;;;;;6.23;4.27;;;;;;;;;;4986230;28;21025;-91
2021/09/05 07:41:00;;;;;;;5.73;4.53;;;;;;;;;;4987138;28;20408;-91
2021/09/05 07:43:28;;;;;;;5.27;4.60;;;;;;;;;;4981866;28;20413;-90
2021/09/05 07:45:55;;;;;;;5.18;4.43;;;;;;;;;;4977697;28;20431;-90
2021/09/05 07:48:22;;;;;;;5.13;4.30;;;;;;;;;;4980756;28;20409;-90
2021/09/05 07:50:49;;;;;;;4.60;4.20;;;;;;;;;;4980609;28;20399;-91
2021/09/05 07:53:17;;;;;;;5.45;4.20;;;;;;;;;;4989396;28;20411;-90
2021/09/05 07:55:44;;;;;;;6.07;4.20;;;;;;;;;;4984078;28;20422;-90
2021/09/05 07:58:10;;;;;;;5.25;4.30;;;;;;;;;;4989419;28;20412;-90
2021/09/05 08:00:39;;;;;;;6.50;4.00;;;;;;;;;;4984896;28;20412;-90
2021/09/05 08:03:06;;;;;;;4.40;4.00;;;;;;;;;;4983416;28;20741;-90
2021/09/05 08:05:33;;;;;;;5.90;4.22;;;;;;;;;;4984562;28;20416;-91
2021/09/05 08:08:00;;;;;;;4.43;3.97;;;;;;;;;;4980879;28;20436;-89
2021/09/05 08:10:27;;;;;;;5.82;3.97;;;;;;;;;;4986534;28;20887;-90
2021/09/05 08:12:54;;;;;;;5.10;3.92;;;;;;;;;;4980572;28;20920;-90
2021/09/05 08:15:21;;;;;;;4.45;4.00;;;;;;;;;;4984445;28;20782;-90
2021/09/05 08:17:49;;;;;;;5.22;4.18;;;;;;;;;;4984443;28;20438;-91
2021/09/05 08:20:16;;;;;;;4.88;3.97;;;;;;;;;;4983718;28;20418;-90
2021/09/05 08:22:45;;;;;;;4.80;4.15;;;;;;;;;;4986788;28;20788;-90
2021/09/05 08:25:12;;;;;;;5.00;4.32;;;;;;;;;;4986393;28;20409;-90
2021/09/05 08:27:39;;;;;;;5.60;4.32;;;;;;;;;;4982626;28;20420;-89
2021/09/05 08:30:06;;;;;;;4.93;3.92;;;;;;;;;;4982100;28;20915;-89
2021/09/05 08:32:33;;;;;;;4.53;4.13;;;;;;;;;;4980290;28;20424;-89
2021/09/05 08:35:02;;;;;;;7.00;4.20;;;;;;;;;;4983020;28;20592;-89
2021/09/05 08:37:29;;;;;;;5.80;4.63;;;;;;;;;;4984036;28;20413;-89
2021/09/05 08:39:56;;;;;;;5.70;4.37;;;;;;;;;;4983185;28;20842;-89
2021/09/05 08:42:24;;;;;;;5.03;4.30;;;;;;;;;;4980967;28;20440;-88
2021/09/05 08:44:51;;;;;;;5.88;4.07;;;;;;;;;;4982588;28;20849;-89
2021/09/05 08:47:18;;;;;;;5.60;4.10;;;;;;;;;;4984657;28;20410;-89
2021/09/05 08:49:46;;;;;;;4.93;4.15;;;;;;;;;;4984189;28;20411;-89
2021/09/05 08:52:15;;;;;;;4.72;3.70;;;;;;;;;;4983722;28;20442;-89
2021/09/05 08:54:41;;;;;;;4.85;4.30;;;;;;;;;;4987726;28;20412;-89
2021/09/05 08:57:08;;;;;;;4.85;4.28;;;;;;;;;;4986528;28;20412;-89
2021/09/05 08:59:35;;;;;;;4.05;3.67;;;;;;;;;;4987123;28;20766;-89
2021/09/05 09:02:02;;;;;;;4.85;3.95;;;;;;;;;;4987118;28;20809;-89
2021/09/05 09:04:36;;;;;;;5.00;4.25;;;;;;;;;;4982656;28;20413;-89
2021/09/05 09:07:09;;;;;;;4.32;3.88;;;;;;;;;;4987762;28;20412;-89
2021/09/05 09:09:37;;;;;;;5.20;3.78;;;;;;;;;;4985365;28;20431;-89
2021/09/05 09:12:05;;;;;;;4.93;4.05;;;;;;;;;;4990637;28;20413;-90
2021/09/05 09:14:43;;;;;;;4.78;4.18;;;;;;;;;;4984420;28;20769;-89
2021/09/05 09:17:11;;;;;;;5.00;3.80;;;;;;;;;;4990613;28;20849;-90
2021/09/05 09:19:39;;;;;;;4.40;3.70;;;;;;;;;;4986934;28;20414;-89
2021/09/05 09:22:06;;;;;;;4.00;3.60;;;;;;;;;;4989074;28;20409;-89
2021/09/05 09:24:44;;;;;;;5.07;3.80;;;;;;;;;;4987363;28;20418;-90
2021/09/05 09:27:12;;;;;;;4.70;4.15;;;;;;;;;;4990027;28;20436;-90
2021/09/05 09:29:39;;;;;;;5.05;4.20;;;;;;;;;;4986068;28;20417;-89
2021/09/05 09:32:09;;;;;;;5.00;3.70;;;;;;;;;;4987969;28;20426;-89
2021/09/05 09:34:41;;;;;;;4.90;3.60;;;;;;;;;;4986683;28;20409;-89
2021/09/05 09:37:14;;;;;;;4.97;3.83;;;;;;;;;;4984256;28;20416;-89
2021/09/05 09:39:47;;;;;;;4.82;3.90;;;;;;;;;;4987121;28;20476;-89
2021/09/05 09:42:34;;;;;;;5.20;4.10;;;;;;;;;;4986658;28;20416;-89
2021/09/05 09:45:01;;;;;;;4.30;3.65;;;;;;;;;;4983054;28;20406;-89
2021/09/05 09:47:38;;;;;;;4.70;4.03;;;;;;;;;;4982000;28;20401;-89
2021/09/05 09:50:06;;;;;;;4.22;3.83;;;;;;;;;;4991031;28;20451;-90
2021/09/05 09:52:32;;;;;;;5.63;4.10;;;;;;;;;;4988555;28;20484;-90
2021/09/05 09:55:01;;;;;;;5.03;4.00;;;;;;;;;;4989205;28;20416;-89
2021/09/05 09:57:28;;;;;;;4.87;3.97;;;;;;;;;;4987921;28;20481;-90
2021/09/05 09:59:55;;;;;;;4.22;3.83;;;;;;;;;;4991287;28;20408;-89
2021/09/05 10:02:26;;;;;;;4.30;3.83;;;;;;;;;;4986656;28;20416;-89
2021/09/05 10:04:55;;;;;;;4.80;4.15;;;;;;;;;;4986826;28;20417;-89
2021/09/05 10:07:23;;;;;;;4.60;3.95;;;;;;;;;;4986667;28;20505;-89
2021/09/05 10:09:51;;;;;;;4.53;4.07;;;;;;;;;;4989227;28;20399;-89
2021/09/05 10:12:20;;;;;;;4.22;3.63;;;;;;;;;;4988861;28;20415;-90
2021/09/05 10:14:52;;;;;;;9.95;4.10;;;;;;;;;;4984474;28;20751;-90
2021/09/05 10:17:21;;;;;;;5.80;3.67;;;;;;;;;;4988219;28;20748;-90
2021/09/05 10:19:49;;;;;;;4.80;4.00;;;;;;;;;;4986931;28;21052;-90
2021/09/05 10:22:18;;;;;;;4.85;3.80;;;;;;;;;;4988752;28;20409;-89
2021/09/05 10:24:48;;;;;;;5.38;3.90;;;;;;;;;;4986388;28;20414;-90
2021/09/05 10:27:16;;;;;;;4.72;3.90;;;;;;;;;;4991901;28;20781;-90
2021/09/05 10:30:12;;;;;;;4.15;3.70;;;;;;;;;;4988426;28;20405;-90
2021/09/05 10:32:50;;;;;;;4.78;3.60;;;;;;;;;;4980744;28;20412;-90
2021/09/05 10:35:38;;;;;;;5.47;3.95;;;;;;;;;;4989270;28;20427;-90
2021/09/05 10:38:22;;;;;;;4.05;3.65;;;;;;;;;;4986988;28;20406;-90
2021/09/05 10:40:51;;;;;;;4.07;3.60;;;;;;;;;;4990117;28;20416;-90
2021/09/05 10:43:19;;;;;;;5.32;3.55;;;;;;;;;;4981930;28;20442;-90
2021/09/05 10:45:49;;;;;;;5.07;3.83;;;;;;;;;;4992773;28;20408;-89
2021/09/05 10:48:36;;;;;;;5.30;3.97;;;;;;;;;;4987442;28;20497;-89
2021/09/05 10:51:07;;;;;;;4.28;3.83;;;;;;;;;;4984482;28;20404;-90
2021/09/05 10:53:37;;;;;;;4.35;3.85;;;;;;;;;;4985384;28;20413;-89
2021/09/05 10:56:11;;;;;;;5.43;4.03;;;;;;;;;;4986373;28;20429;-90
2021/09/05 10:58:40;;;;;;;4.03;3.60;;;;;;;;;;4986286;28;20427;-90
2021/09/05 11:01:36;;;;;;;4.80;3.63;;;;;;;;;;4986107;28;20777;-89
2021/09/05 11:04:25;;;;;;;4.45;3.78;;;;;;;;;;4933047;28;20416;-89
2021/09/05 11:06:56;;;;;;;4.17;3.77;;;;;;;;;;4984367;28;20848;-90
2021/09/05 11:09:45;;;;;;;4.50;3.85;;;;;;;;;;4989114;28;20969;-88
2021/09/05 11:12:15;;;;;;;3.97;3.60;;;;;;;;;;4986254;28;20413;-90
2021/09/05 11:14:59;;;;;;;4.40;4.00;;;;;;;;;;4989632;28;20444;-90
2021/09/05 11:17:29;;;;;;;4.68;3.60;;;;;;;;;;4985759;28;20912;-89
2021/09/05 11:19:57;;;;;;;3.97;3.63;;;;;;;;;;4994801;28;20413;-90
2021/09/05 11:22:26;;;;;;;4.45;3.90;;;;;;;;;;4999170;28;20410;-89
2021/09/05 11:25:07;;;;;;;5.00;3.85;;;;;;;;;;5003236;28;20419;-89
2021/09/05 11:27:34;;;;;;;4.40;4.00;;;;;;;;;;4996229;28;20440;-90
2021/09/05 11:30:02;;;;;;;4.30;3.90;;;;;;;;;;4983093;28;20416;-89
2021/09/05 11:32:30;;;;;;;4.30;3.90;;;;;;;;;;4988370;28;20416;-89
2021/09/05 11:34:57;;;;;;;4.10;3.70;;;;;;;;;;4987488;28;20451;-90
2021/09/05 11:37:28;;;;;;;4.20;3.80;;;;;;;;;;4986601;28;20430;-89
2021/09/05 11:39:56;;;;;;;4.20;3.80;;;;;;;;;;4983925;28;20424;-89
2021/09/05 11:42:23;;;;;;;4.55;4.15;;;;;;;;;;4985859;28;20414;-89
2021/09/05 11:44:50;;;;;;;4.90;4.30;;;;;;;;;;4986229;28;20402;-89
2021/09/05 11:47:18;;;;;;;4.80;3.75;;;;;;;;;;4989118;28;20399;-89
2021/09/05 11:49:50;;;;;;;4.22;3.83;;;;;;;;;;4985230;28;20408;-89
2021/09/05 11:52:21;;;;;;;4.38;3.97;;;;;;;;;;4988078;28;20439;-90
2021/09/05 11:54:49;;;;;;;4.43;4.03;;;;;;;;;;4988857;28;20778;-89
2021/09/05 11:57:16;;;;;;;4.25;3.85;;;;;;;;;;4986214;28;20426;-89
2021/09/05 11:59:43;;;;;;;5.28;4.25;;;;;;;;;;4987904;28;20435;-89
2021/09/05 12:02:10;;;;;;;4.30;3.88;;;;;;;;;;4987757;28;20428;-89
2021/09/05 12:04:37;;;;;;;4.60;4.20;;;;;;;;;;4984835;28;20790;-90
2021/09/05 12:07:06;;;;;;;5.95;4.28;;;;;;;;;;4988140;28;20766;-89
2021/09/05 12:09:34;;;;;;;4.70;3.85;;;;;;;;;;4988444;28;20416;-89
2021/09/05 12:12:03;;;;;;;4.72;4.00;;;;;;;;;;4987563;28;20409;-90
2021/09/05 12:14:31;;;;;;;4.63;4.20;;;;;;;;;;4986525;28;20413;-89
2021/09/05 12:16:58;;;;;;;4.20;3.80;;;;;;;;;;4987987;28;21041;-89
2021/09/05 12:19:25;;;;;;;4.20;3.80;;;;;;;;;;4987417;28;20397;-90
2021/09/05 12:21:59;;;;;;;4.60;4.20;;;;;;;;;;4990344;28;20412;-90
2021/09/05 12:24:27;;;;;;;4.50;4.10;;;;;;;;;;4983176;28;20425;-89
2021/09/05 12:27:08;;;;;;;4.78;3.90;;;;;;;;;;4986370;28;20399;-89
2021/09/05 12:29:35;;;;;;;4.30;3.90;;;;;;;;;;4986722;28;20411;-89
2021/09/05 12:32:03;;;;;;;5.35;3.70;;;;;;;;;;4984711;28;20413;-89
2021/09/05 12:34:39;;;;;;;5.95;4.35;;;;;;;;;;4983774;28;20418;-89
2021/09/05 12:37:16;;;;;;;5.90;4.33;;;;;;;;;;4984200;28;20452;-89
2021/09/05 12:39:45;;;;;;;5.20;4.22;;;;;;;;;;4985994;28;20659;-89
2021/09/05 12:42:14;;;;;;;6.80;4.38;;;;;;;;;;4981820;28;20404;-89
2021/09/05 12:44:46;;;;;;;4.90;4.40;;;;;;;;;;4984874;28;20410;-89
2021/09/05 12:47:20;;;;;;;4.72;4.15;;;;;;;;;;4984109;28;20417;-88
2021/09/05 12:49:47;;;;;;;10.32;4.05;;;;;;;;;;4988392;28;20435;-89
2021/09/05 12:52:25;;;;;;;5.15;4.00;;;;;;;;;;4987191;28;20885;-89
2021/09/05 12:54:54;;;;;;;4.53;4.13;;;;;;;;;;4988171;28;20409;-88
2021/09/05 12:57:20;;;;;;;5.80;3.75;;;;;;;;;;4988316;28;20429;-88
2021/09/05 12:59:47;;;;;;;5.22;4.35;;;;;;;;;;4984970;28;20408;-89
2021/09/05 13:02:14;;;;;;;6.53;4.32;;;;;;;;;;4986273;28;20743;-89
2021/09/05 13:04:41;;;;;;;4.55;4.13;;;;;;;;;;4988477;28;20908;-89
2021/09/05 13:07:08;;;;;;;4.88;4.35;;;;;;;;;;4987960;28;20877;-89
2021/09/05 13:09:37;;;;;;;4.50;4.10;;;;;;;;;;4982171;28;20405;-89
2021/09/05 13:12:06;;;;;;;4.45;4.05;;;;;;;;;;4991393;28;20470;-93
2021/09/05 13:14:33;;;;;;;5.55;4.10;;;;;;;;;;4985288;28;20922;-89
2021/09/05 13:17:00;;;;;;;7.53;4.90;;;;;;;;;;4980280;28;20416;-91
2021/09/05 13:19:27;;;;;;;6.97;4.30;;;;;;;;;;4978627;28;20439;-86
2021/09/05 13:21:56;;;;;;;4.75;4.35;;;;;;;;;;4982937;28;21012;-82
2021/09/05 13:24:23;;;;;;;5.57;4.10;;;;;;;;;;4986201;28;20406;-82
2021/09/05 13:26:50;;;;;;;4.53;4.13;;;;;;;;;;4980670;28;20415;-86
2021/09/05 13:29:18;;;;;;;6.70;4.30;;;;;;;;;;4977931;28;20403;-83
2021/09/05 13:31:49;;;;;;;5.00;4.35;;;;;;;;;;4986809;28;20449;-93
2021/09/05 13:34:19;;;;;;;4.93;4.47;;;;;;;;;;4990867;28;20410;-93
2021/09/05 13:36:49;;;;;;;4.13;3.72;;;;;;;;;;4990341;28;20427;-93
2021/09/05 13:39:17;;;;;;;4.78;4.30;;;;;;;;;;4992370;28;20515;-93
2021/09/05 13:41:45;;;;;;;4.50;4.10;;;;;;;;;;4984152;28;20414;-94
2021/09/05 13:44:12;;;;;;;4.60;4.20;;;;;;;;;;4985887;28;20423;-93
2021/09/05 13:49:21;;;;;;;4.38;3.97;;;;;;;;;;4986014;28;20580;-93
2021/09/05 13:51:54;;;;;;;5.70;4.50;;;;;;;;;;4982936;28;20420;-93
2021/09/05 13:54:21;;;;;;;4.50;4.10;;;;;;;;;;4984030;28;20458;-92
2021/09/05 13:56:58;;;;;;;5.43;4.20;;;;;;;;;;4985753;28;20484;-93
2021/09/05 13:59:28;;;;;;;4.53;4.05;;;;;;;;;;4983017;28;20409;-92
2021/09/05 14:01:56;;;;;;;5.50;4.47;;;;;;;;;;4994911;28;20423;-91
2021/09/05 14:04:26;;;;;;;8.15;4.10;;;;;;;;;;4982324;28;20417;-90
2021/09/05 14:07:01;;;;;;;5.03;4.20;;;;;;;;;;4987927;28;20407;-91
2021/09/05 14:09:45;;;;;;;4.75;4.25;;;;;;;;;;4986212;28;20420;-91
2021/09/05 14:12:13;;;;;;;4.47;4.07;;;;;;;;;;4986859;28;20435;-91
2021/09/05 14:14:40;;;;;;;4.55;4.13;;;;;;;;;;4983722;28;20420;-92
2021/09/05 14:17:08;;;;;;;4.80;4.10;;;;;;;;;;4983921;28;20472;-90
2021/09/05 14:19:36;;;;;;;5.18;4.40;;;;;;;;;;4986928;28;20409;-91
2021/09/05 14:22:03;;;;;;;5.13;3.93;;;;;;;;;;4986001;28;20416;-92
2021/09/05 14:24:30;;;;;;;5.50;3.97;;;;;;;;;;4987334;28;20462;-91
2021/09/05 14:27:00;;;;;;;5.03;4.10;;;;;;;;;;4985096;28;20447;-91
2021/09/05 14:29:34;;;;;;;5.00;4.13;;;;;;;;;;4983675;28;20430;-91
2021/09/05 14:32:05;;;;;;;4.30;3.90;;;;;;;;;;4982396;28;20409;-92
2021/09/05 14:48:20;;;;;;;4.78;4.30;;;;;;;;;;4984998;28;20915;-76
2021/09/05 14:51:04;;;;;;;5.45;4.30;;;;;;;;;;4984812;28;20486;-79
2021/09/05 14:56:12;;;;;;;4.57;3.80;;;;;;;;;;4976999;28;20703;-84
2021/09/05 14:58:46;;;;;;;6.47;4.32;;;;;;;;;;4984571;28;20412;-84
2021/09/05 15:01:16;;;;;;;8.88;4.80;;;;;;;;;;4982568;28;20413;-87
2021/09/05 15:03:48;;;;;;;5.00;4.07;;;;;;;;;;4980697;28;20921;-87
2021/09/05 15:06:33;;;;;;;4.57;4.05;;;;;;;;;;4977844;28;20418;-86
2021/09/05 15:11:44;;;;;;;4.20;3.80;;;;;;;;;;4983179;28;20410;-89